sensor_id;sensor_type;location;lat;lon;timestamp;P1;durP1;ratioP1;P2;durP2;ratioP2
23720;SDS011;42950;52.134;5.578;2022-11-15T00:01:08;42.75;;;23.35;;
23720;SDS011;42950;52.134;5.578;2022-11-15T00:03:35;46.25;;;25.58;;
23720;SDS011;42950;52.134;5.578;2022-11-15T00:06:01;47.67;;;25.63;;
23720;SDS011;42950;52.134;5.578;2022-11-15T00:08:29;46.28;;;26.50;;
23720;SDS011;42950;52.134;5.578;2022-11-15T00:10:59;46.35;;;25.20;;
23720;SDS011;42950;52.134;5.578;2022-11-15T00:13:26;45.92;;;26.08;;
23720;SDS011;42950;52.134;5.578;2022-11-15T00:15:52;49.63;;;26.60;;
23720;SDS011;42950;52.134;5.578;2022-11-15T00:18:21;51.88;;;28.10;;
23720;SDS011;42950;52.134;5.578;2022-11-15T00:20:46;53.05;;;27.55;;
23720;SDS011;42950;52.134;5.578;2022-11-15T00:23:12;51.33;;;26.58;;
23720;SDS011;42950;52.134;5.578;2022-11-15T00:25:37;55.63;;;28.45;;
23720;SDS011;42950;52.134;5.578;2022-11-15T00:28:03;58.35;;;28.20;;
23720;SDS011;42950;52.134;5.578;2022-11-15T00:30:29;60.13;;;28.25;;
23720;SDS011;42950;52.134;5.578;2022-11-15T00:32:55;59.33;;;29.52;;
23720;SDS011;42950;52.134;5.578;2022-11-15T00:35:20;62.72;;;29.27;;
23720;SDS011;42950;52.134;5.578;2022-11-15T00:37:46;56.65;;;27.42;;
23720;SDS011;42950;52.134;5.578;2022-11-15T00:40:12;58.25;;;29.08;;
23720;SDS011;42950;52.134;5.578;2022-11-15T00:42:39;65.53;;;28.45;;
23720;SDS011;42950;52.134;5.578;2022-11-15T00:45:05;58.47;;;30.58;;
23720;SDS011;42950;52.134;5.578;2022-11-15T00:47:31;67.07;;;29.85;;
23720;SDS011;42950;52.134;5.578;2022-11-15T00:49:56;63.30;;;31.27;;
23720;SDS011;42950;52.134;5.578;2022-11-15T00:52:22;64.85;;;31.05;;
23720;SDS011;42950;52.134;5.578;2022-11-15T00:54:48;67.22;;;31.90;;
23720;SDS011;42950;52.134;5.578;2022-11-15T00:57:13;64.30;;;30.77;;
23720;SDS011;42950;52.134;5.578;2022-11-15T00:59:39;68.97;;;32.67;;
23720;SDS011;42950;52.134;5.578;2022-11-15T01:02:04;66.18;;;31.70;;
23720;SDS011;42950;52.134;5.578;2022-11-15T01:04:30;63.63;;;31.08;;
23720;SDS011;42950;52.134;5.578;2022-11-15T01:06:55;70.03;;;32.15;;
23720;SDS011;42950;52.134;5.578;2022-11-15T01:09:21;68.00;;;32.13;;
23720;SDS011;42950;52.134;5.578;2022-11-15T01:11:46;58.08;;;30.15;;
23720;SDS011;42950;52.134;5.578;2022-11-15T01:14:12;59.58;;;29.77;;
23720;SDS011;42950;52.134;5.578;2022-11-15T01:16:38;60.47;;;29.27;;
23720;SDS011;42950;52.134;5.578;2022-11-15T01:19:03;54.53;;;29.25;;
23720;SDS011;42950;52.134;5.578;2022-11-15T01:21:29;62.50;;;30.50;;
23720;SDS011;42950;52.134;5.578;2022-11-15T01:23:55;53.67;;;29.48;;
23720;SDS011;42950;52.134;5.578;2022-11-15T01:26:21;53.13;;;28.95;;
23720;SDS011;42950;52.134;5.578;2022-11-15T01:28:48;48.28;;;27.38;;
23720;SDS011;42950;52.134;5.578;2022-11-15T01:31:14;51.58;;;28.58;;
23720;SDS011;42950;52.134;5.578;2022-11-15T01:33:42;58.60;;;29.73;;
23720;SDS011;42950;52.134;5.578;2022-11-15T01:36:10;53.72;;;29.17;;
23720;SDS011;42950;52.134;5.578;2022-11-15T01:38:44;54.55;;;29.08;;
23720;SDS011;42950;52.134;5.578;2022-11-15T01:41:14;58.33;;;30.42;;
23720;SDS011;42950;52.134;5.578;2022-11-15T01:43:41;58.92;;;31.77;;
23720;SDS011;42950;52.134;5.578;2022-11-15T01:48:52;60.15;;;30.80;;
23720;SDS011;42950;52.134;5.578;2022-11-15T01:51:20;57.78;;;30.52;;
23720;SDS011;42950;52.134;5.578;2022-11-15T01:53:49;54.63;;;29.02;;
23720;SDS011;42950;52.134;5.578;2022-11-15T01:56:18;56.42;;;29.77;;
23720;SDS011;42950;52.134;5.578;2022-11-15T01:58:48;53.30;;;28.65;;
23720;SDS011;42950;52.134;5.578;2022-11-15T02:01:14;62.60;;;30.20;;
23720;SDS011;42950;52.134;5.578;2022-11-15T02:03:49;52.90;;;30.20;;
23720;SDS011;42950;52.134;5.578;2022-11-15T02:06:19;54.90;;;29.67;;
23720;SDS011;42950;52.134;5.578;2022-11-15T02:08:46;55.90;;;29.10;;
23720;SDS011;42950;52.134;5.578;2022-11-15T02:11:12;53.83;;;30.23;;
23720;SDS011;42950;52.134;5.578;2022-11-15T02:13:38;57.13;;;29.73;;
23720;SDS011;42950;52.134;5.578;2022-11-15T02:16:08;52.60;;;29.75;;
23720;SDS011;42950;52.134;5.578;2022-11-15T02:18:46;54.47;;;29.15;;
23720;SDS011;42950;52.134;5.578;2022-11-15T02:21:26;51.80;;;28.33;;
23720;SDS011;42950;52.134;5.578;2022-11-15T02:24:06;51.78;;;30.02;;
23720;SDS011;42950;52.134;5.578;2022-11-15T02:32:42;47.70;;;28.88;;
23720;SDS011;42950;52.134;5.578;2022-11-15T02:35:40;52.17;;;30.65;;
23720;SDS011;42950;52.134;5.578;2022-11-15T02:38:21;55.17;;;29.38;;
23720;SDS011;42950;52.134;5.578;2022-11-15T02:40:55;51.53;;;29.50;;
23720;SDS011;42950;52.134;5.578;2022-11-15T02:43:36;51.22;;;30.75;;
23720;SDS011;42950;52.134;5.578;2022-11-15T02:46:31;50.35;;;30.60;;
23720;SDS011;42950;52.134;5.578;2022-11-15T02:49:22;53.35;;;29.52;;
23720;SDS011;42950;52.134;5.578;2022-11-15T02:51:52;49.42;;;28.77;;
23720;SDS011;42950;52.134;5.578;2022-11-15T02:54:20;54.17;;;29.60;;
23720;SDS011;42950;52.134;5.578;2022-11-15T02:56:48;44.60;;;29.00;;
23720;SDS011;42950;52.134;5.578;2022-11-15T03:05:13;50.58;;;29.08;;
23720;SDS011;42950;52.134;5.578;2022-11-15T03:08:01;50.72;;;29.92;;
23720;SDS011;42950;52.134;5.578;2022-11-15T03:10:39;46.08;;;29.30;;
23720;SDS011;42950;52.134;5.578;2022-11-15T03:13:19;46.13;;;29.45;;
23720;SDS011;42950;52.134;5.578;2022-11-15T03:15:52;43.97;;;28.35;;
23720;SDS011;42950;52.134;5.578;2022-11-15T03:18:32;45.10;;;27.92;;
23720;SDS011;42950;52.134;5.578;2022-11-15T03:21:07;41.65;;;26.95;;
23720;SDS011;42950;52.134;5.578;2022-11-15T03:23:36;46.30;;;27.30;;
23720;SDS011;42950;52.134;5.578;2022-11-15T03:26:05;47.20;;;27.42;;
23720;SDS011;42950;52.134;5.578;2022-11-15T03:28:35;41.63;;;27.27;;
23720;SDS011;42950;52.134;5.578;2022-11-15T03:31:07;41.50;;;24.92;;
23720;SDS011;42950;52.134;5.578;2022-11-15T03:33:55;42.10;;;28.60;;
23720;SDS011;42950;52.134;5.578;2022-11-15T03:36:24;44.08;;;27.50;;
23720;SDS011;42950;52.134;5.578;2022-11-15T03:38:52;42.65;;;26.52;;
23720;SDS011;42950;52.134;5.578;2022-11-15T03:41:27;41.58;;;26.58;;
23720;SDS011;42950;52.134;5.578;2022-11-15T03:44:02;38.67;;;26.50;;
23720;SDS011;42950;52.134;5.578;2022-11-15T03:46:39;37.58;;;25.88;;
23720;SDS011;42950;52.134;5.578;2022-11-15T03:49:14;36.60;;;24.63;;
23720;SDS011;42950;52.134;5.578;2022-11-15T03:51:44;43.20;;;25.80;;
23720;SDS011;42950;52.134;5.578;2022-11-15T03:54:11;39.25;;;26.95;;
23720;SDS011;42950;52.134;5.578;2022-11-15T03:56:37;41.78;;;26.92;;
23720;SDS011;42950;52.134;5.578;2022-11-15T03:59:03;38.92;;;26.42;;
23720;SDS011;42950;52.134;5.578;2022-11-15T04:01:29;41.15;;;27.60;;
23720;SDS011;42950;52.134;5.578;2022-11-15T04:03:54;38.08;;;26.65;;
23720;SDS011;42950;52.134;5.578;2022-11-15T04:06:20;39.38;;;26.38;;
23720;SDS011;42950;52.134;5.578;2022-11-15T04:08:45;39.80;;;26.25;;
23720;SDS011;42950;52.134;5.578;2022-11-15T04:11:11;38.38;;;27.17;;
23720;SDS011;42950;52.134;5.578;2022-11-15T04:13:36;48.22;;;26.92;;
23720;SDS011;42950;52.134;5.578;2022-11-15T04:16:02;40.55;;;26.52;;
23720;SDS011;42950;52.134;5.578;2022-11-15T04:18:28;35.50;;;25.17;;
23720;SDS011;42950;52.134;5.578;2022-11-15T04:20:53;35.20;;;24.88;;
23720;SDS011;42950;52.134;5.578;2022-11-15T04:23:38;37.30;;;26.55;;
23720;SDS011;42950;52.134;5.578;2022-11-15T04:26:22;42.13;;;27.23;;
23720;SDS011;42950;52.134;5.578;2022-11-15T04:28:48;38.70;;;26.30;;
23720;SDS011;42950;52.134;5.578;2022-11-15T04:31:33;37.63;;;27.45;;
23720;SDS011;42950;52.134;5.578;2022-11-15T04:33:58;43.53;;;28.13;;
23720;SDS011;42950;52.134;5.578;2022-11-15T04:36:24;41.20;;;27.15;;
23720;SDS011;42950;52.134;5.578;2022-11-15T04:39:09;40.10;;;27.70;;
23720;SDS011;42950;52.134;5.578;2022-11-15T04:41:34;37.83;;;26.77;;
23720;SDS011;42950;52.134;5.578;2022-11-15T04:44:00;40.67;;;27.65;;
23720;SDS011;42950;52.134;5.578;2022-11-15T04:46:25;37.38;;;27.48;;
23720;SDS011;42950;52.134;5.578;2022-11-15T04:48:52;44.30;;;27.52;;
23720;SDS011;42950;52.134;5.578;2022-11-15T04:51:18;39.13;;;27.17;;
23720;SDS011;42950;52.134;5.578;2022-11-15T04:53:44;37.17;;;26.17;;
23720;SDS011;42950;52.134;5.578;2022-11-15T04:56:09;36.40;;;25.55;;
23720;SDS011;42950;52.134;5.578;2022-11-15T04:58:35;43.13;;;26.52;;
23720;SDS011;42950;52.134;5.578;2022-11-15T05:01:11;39.72;;;26.88;;
23720;SDS011;42950;52.134;5.578;2022-11-15T05:03:39;37.65;;;24.65;;
23720;SDS011;42950;52.134;5.578;2022-11-15T05:06:24;39.13;;;26.30;;
23720;SDS011;42950;52.134;5.578;2022-11-15T05:08:50;35.00;;;25.30;;
23720;SDS011;42950;52.134;5.578;2022-11-15T05:11:16;36.53;;;25.10;;
23720;SDS011;42950;52.134;5.578;2022-11-15T05:13:41;34.35;;;24.35;;
23720;SDS011;42950;52.134;5.578;2022-11-15T05:16:07;36.70;;;26.05;;
23720;SDS011;42950;52.134;5.578;2022-11-15T05:18:33;40.42;;;26.33;;
23720;SDS011;42950;52.134;5.578;2022-11-15T05:21:05;35.95;;;26.70;;
23720;SDS011;42950;52.134;5.578;2022-11-15T05:23:34;37.30;;;26.23;;
23720;SDS011;42950;52.134;5.578;2022-11-15T05:26:00;37.38;;;25.02;;
23720;SDS011;42950;52.134;5.578;2022-11-15T05:28:27;35.42;;;24.83;;
23720;SDS011;42950;52.134;5.578;2022-11-15T05:30:52;37.58;;;25.77;;
23720;SDS011;42950;52.134;5.578;2022-11-15T05:33:18;34.92;;;24.77;;
23720;SDS011;42950;52.134;5.578;2022-11-15T05:35:48;37.30;;;25.70;;
23720;SDS011;42950;52.134;5.578;2022-11-15T05:38:19;37.90;;;25.98;;
23720;SDS011;42950;52.134;5.578;2022-11-15T05:40:45;35.92;;;25.63;;
23720;SDS011;42950;52.134;5.578;2022-11-15T05:43:10;36.88;;;25.45;;
23720;SDS011;42950;52.134;5.578;2022-11-15T05:45:36;34.65;;;25.42;;
23720;SDS011;42950;52.134;5.578;2022-11-15T05:48:04;40.30;;;25.08;;
23720;SDS011;42950;52.134;5.578;2022-11-15T05:50:32;40.17;;;25.73;;
23720;SDS011;42950;52.134;5.578;2022-11-15T05:52:59;33.50;;;24.90;;
23720;SDS011;42950;52.134;5.578;2022-11-15T05:55:26;33.72;;;24.80;;
23720;SDS011;42950;52.134;5.578;2022-11-15T05:57:52;35.92;;;24.95;;
23720;SDS011;42950;52.134;5.578;2022-11-15T06:00:18;32.35;;;24.30;;
23720;SDS011;42950;52.134;5.578;2022-11-15T06:02:43;34.25;;;24.80;;
23720;SDS011;42950;52.134;5.578;2022-11-15T06:05:09;36.75;;;25.77;;
23720;SDS011;42950;52.134;5.578;2022-11-15T06:07:35;34.38;;;25.40;;
23720;SDS011;42950;52.134;5.578;2022-11-15T06:10:00;35.38;;;25.45;;
23720;SDS011;42950;52.134;5.578;2022-11-15T06:12:26;31.67;;;24.80;;
23720;SDS011;42950;52.134;5.578;2022-11-15T06:14:52;34.70;;;24.75;;
23720;SDS011;42950;52.134;5.578;2022-11-15T06:17:17;41.05;;;25.70;;
23720;SDS011;42950;52.134;5.578;2022-11-15T06:19:43;38.20;;;26.15;;
23720;SDS011;42950;52.134;5.578;2022-11-15T06:22:08;37.15;;;25.27;;
23720;SDS011;42950;52.134;5.578;2022-11-15T06:24:34;39.50;;;26.42;;
23720;SDS011;42950;52.134;5.578;2022-11-15T06:27:00;40.83;;;25.35;;
23720;SDS011;42950;52.134;5.578;2022-11-15T06:29:25;41.30;;;25.40;;
23720;SDS011;42950;52.134;5.578;2022-11-15T06:31:51;37.80;;;25.88;;
23720;SDS011;42950;52.134;5.578;2022-11-15T06:34:17;37.83;;;25.80;;
23720;SDS011;42950;52.134;5.578;2022-11-15T06:36:43;36.30;;;25.65;;
23720;SDS011;42950;52.134;5.578;2022-11-15T06:39:08;36.40;;;25.70;;
23720;SDS011;42950;52.134;5.578;2022-11-15T06:41:34;39.53;;;26.60;;
23720;SDS011;42950;52.134;5.578;2022-11-15T06:44:01;33.13;;;24.80;;
23720;SDS011;42950;52.134;5.578;2022-11-15T06:46:27;36.03;;;24.20;;
23720;SDS011;42950;52.134;5.578;2022-11-15T06:48:53;37.13;;;26.15;;
23720;SDS011;42950;52.134;5.578;2022-11-15T06:51:19;37.50;;;25.40;;
23720;SDS011;42950;52.134;5.578;2022-11-15T06:53:45;37.58;;;24.83;;
23720;SDS011;42950;52.134;5.578;2022-11-15T06:56:11;36.67;;;24.90;;
23720;SDS011;42950;52.134;5.578;2022-11-15T06:58:37;34.22;;;25.85;;
23720;SDS011;42950;52.134;5.578;2022-11-15T07:01:07;35.20;;;25.17;;
23720;SDS011;42950;52.134;5.578;2022-11-15T07:03:34;41.08;;;24.42;;
23720;SDS011;42950;52.134;5.578;2022-11-15T07:06:01;34.55;;;25.02;;
23720;SDS011;42950;52.134;5.578;2022-11-15T07:08:27;33.33;;;24.50;;
23720;SDS011;42950;52.134;5.578;2022-11-15T07:10:54;31.33;;;24.17;;
23720;SDS011;42950;52.134;5.578;2022-11-15T07:13:24;38.60;;;25.35;;
23720;SDS011;42950;52.134;5.578;2022-11-15T07:15:50;33.65;;;24.48;;
23720;SDS011;42950;52.134;5.578;2022-11-15T07:18:16;35.03;;;24.02;;
23720;SDS011;42950;52.134;5.578;2022-11-15T07:20:41;32.28;;;24.00;;
23720;SDS011;42950;52.134;5.578;2022-11-15T07:23:07;30.73;;;24.15;;
23720;SDS011;42950;52.134;5.578;2022-11-15T07:25:32;33.50;;;24.30;;
23720;SDS011;42950;52.134;5.578;2022-11-15T07:27:58;33.25;;;24.10;;
23720;SDS011;42950;52.134;5.578;2022-11-15T07:30:25;37.22;;;25.55;;
23720;SDS011;42950;52.134;5.578;2022-11-15T07:32:58;39.67;;;26.02;;
23720;SDS011;42950;52.134;5.578;2022-11-15T07:35:25;35.85;;;24.02;;
23720;SDS011;42950;52.134;5.578;2022-11-15T07:37:58;38.17;;;24.92;;
23720;SDS011;42950;52.134;5.578;2022-11-15T07:40:25;35.25;;;24.27;;
23720;SDS011;42950;52.134;5.578;2022-11-15T07:42:52;34.80;;;23.90;;
23720;SDS011;42950;52.134;5.578;2022-11-15T07:45:18;34.50;;;23.48;;
23720;SDS011;42950;52.134;5.578;2022-11-15T07:47:51;35.42;;;23.50;;
23720;SDS011;42950;52.134;5.578;2022-11-15T07:50:16;32.92;;;23.05;;
23720;SDS011;42950;52.134;5.578;2022-11-15T07:52:42;33.50;;;23.17;;
23720;SDS011;42950;52.134;5.578;2022-11-15T07:55:08;34.80;;;23.23;;
23720;SDS011;42950;52.134;5.578;2022-11-15T07:57:34;34.25;;;22.25;;
23720;SDS011;42950;52.134;5.578;2022-11-15T08:00:00;33.35;;;22.38;;
23720;SDS011;42950;52.134;5.578;2022-11-15T08:02:26;33.72;;;22.83;;
23720;SDS011;42950;52.134;5.578;2022-11-15T08:04:51;35.28;;;23.38;;
23720;SDS011;42950;52.134;5.578;2022-11-15T08:07:17;35.55;;;22.15;;
23720;SDS011;42950;52.134;5.578;2022-11-15T08:09:43;30.30;;;21.95;;
23720;SDS011;42950;52.134;5.578;2022-11-15T08:12:08;31.33;;;21.63;;
23720;SDS011;42950;52.134;5.578;2022-11-15T08:14:34;29.48;;;21.13;;
23720;SDS011;42950;52.134;5.578;2022-11-15T08:17:00;32.83;;;21.73;;
23720;SDS011;42950;52.134;5.578;2022-11-15T08:19:26;29.40;;;20.77;;
23720;SDS011;42950;52.134;5.578;2022-11-15T08:21:51;29.70;;;20.55;;
23720;SDS011;42950;52.134;5.578;2022-11-15T08:24:17;26.00;;;19.88;;
23720;SDS011;42950;52.134;5.578;2022-11-15T08:26:42;30.42;;;19.42;;
23720;SDS011;42950;52.134;5.578;2022-11-15T08:29:08;28.67;;;19.67;;
23720;SDS011;42950;52.134;5.578;2022-11-15T08:31:34;25.75;;;18.80;;
23720;SDS011;42950;52.134;5.578;2022-11-15T08:34:01;25.85;;;18.67;;
23720;SDS011;42950;52.134;5.578;2022-11-15T08:36:28;26.45;;;18.77;;
23720;SDS011;42950;52.134;5.578;2022-11-15T08:38:54;29.27;;;19.80;;
23720;SDS011;42950;52.134;5.578;2022-11-15T08:41:24;24.88;;;17.85;;
23720;SDS011;42950;52.134;5.578;2022-11-15T08:43:55;30.48;;;18.90;;
23720;SDS011;42950;52.134;5.578;2022-11-15T08:46:20;24.52;;;18.25;;
23720;SDS011;42950;52.134;5.578;2022-11-15T08:48:46;26.38;;;17.35;;
23720;SDS011;42950;52.134;5.578;2022-11-15T08:51:11;23.67;;;15.88;;
23720;SDS011;42950;52.134;5.578;2022-11-15T08:53:37;28.38;;;16.98;;
23720;SDS011;42950;52.134;5.578;2022-11-15T08:56:03;23.90;;;16.23;;
23720;SDS011;42950;52.134;5.578;2022-11-15T08:58:33;24.63;;;16.65;;
23720;SDS011;42950;52.134;5.578;2022-11-15T09:00:59;22.23;;;14.98;;
23720;SDS011;42950;52.134;5.578;2022-11-15T09:03:24;22.17;;;14.82;;
23720;SDS011;42950;52.134;5.578;2022-11-15T09:05:54;24.13;;;15.25;;
23720;SDS011;42950;52.134;5.578;2022-11-15T09:08:23;21.85;;;14.70;;
23720;SDS011;42950;52.134;5.578;2022-11-15T09:10:50;25.17;;;15.40;;
23720;SDS011;42950;52.134;5.578;2022-11-15T09:13:15;21.60;;;15.23;;
23720;SDS011;42950;52.134;5.578;2022-11-15T09:15:41;25.02;;;14.93;;
23720;SDS011;42950;52.134;5.578;2022-11-15T09:18:07;21.63;;;15.15;;
23720;SDS011;42950;52.134;5.578;2022-11-15T09:20:33;22.70;;;15.27;;
23720;SDS011;42950;52.134;5.578;2022-11-15T09:22:59;25.48;;;14.68;;
23720;SDS011;42950;52.134;5.578;2022-11-15T09:25:26;22.17;;;14.40;;
23720;SDS011;42950;52.134;5.578;2022-11-15T09:27:52;23.90;;;14.20;;
23720;SDS011;42950;52.134;5.578;2022-11-15T09:30:17;18.98;;;13.52;;
23720;SDS011;42950;52.134;5.578;2022-11-15T09:32:43;24.65;;;14.25;;
23720;SDS011;42950;52.134;5.578;2022-11-15T09:35:08;23.17;;;14.90;;
23720;SDS011;42950;52.134;5.578;2022-11-15T09:37:34;19.15;;;14.10;;
23720;SDS011;42950;52.134;5.578;2022-11-15T09:40:00;19.73;;;14.10;;
23720;SDS011;42950;52.134;5.578;2022-11-15T09:42:30;23.60;;;14.75;;
23720;SDS011;42950;52.134;5.578;2022-11-15T09:50:49;19.90;;;14.90;;
23720;SDS011;42950;52.134;5.578;2022-11-15T09:56:00;18.17;;;13.77;;
23720;SDS011;42950;52.134;5.578;2022-11-15T10:04:21;13.80;;;11.30;;
23720;SDS011;42950;52.134;5.578;2022-11-15T10:07:13;16.17;;;11.20;;
23720;SDS011;42950;52.134;5.578;2022-11-15T10:09:43;17.73;;;11.90;;
23720;SDS011;42950;52.134;5.578;2022-11-15T10:12:18;17.55;;;11.75;;
23720;SDS011;42950;52.134;5.578;2022-11-15T10:14:45;15.07;;;11.50;;
23720;SDS011;42950;52.134;5.578;2022-11-15T10:24:47;10.27;;;8.50;;
23720;SDS011;42950;52.134;5.578;2022-11-15T10:27:14;8.55;;;7.55;;
23720;SDS011;42950;52.134;5.578;2022-11-15T10:29:44;15.52;;;8.45;;
23720;SDS011;42950;52.134;5.578;2022-11-15T10:32:11;10.48;;;7.13;;
23720;SDS011;42950;52.134;5.578;2022-11-15T10:34:38;8.25;;;6.32;;
23720;SDS011;42950;52.134;5.578;2022-11-15T10:37:04;7.63;;;5.85;;
23720;SDS011;42950;52.134;5.578;2022-11-15T10:39:29;8.88;;;6.10;;
23720;SDS011;42950;52.134;5.578;2022-11-15T10:41:55;9.57;;;5.72;;
23720;SDS011;42950;52.134;5.578;2022-11-15T10:49:28;6.57;;;4.30;;
23720;SDS011;42950;52.134;5.578;2022-11-15T10:57:00;5.20;;;3.70;;
23720;SDS011;42950;52.134;5.578;2022-11-15T10:59:32;5.50;;;3.92;;
23720;SDS011;42950;52.134;5.578;2022-11-15T11:02:00;10.43;;;3.72;;
23720;SDS011;42950;52.134;5.578;2022-11-15T11:04:26;6.75;;;3.08;;
23720;SDS011;42950;52.134;5.578;2022-11-15T11:06:54;6.63;;;3.25;;
23720;SDS011;42950;52.134;5.578;2022-11-15T11:11:56;5.22;;;2.85;;
23720;SDS011;42950;52.134;5.578;2022-11-15T11:14:25;4.03;;;2.83;;
23720;SDS011;42950;52.134;5.578;2022-11-15T11:28:19;5.55;;;3.30;;
23720;SDS011;42950;52.134;5.578;2022-11-15T11:39:31;6.07;;;3.17;;
23720;SDS011;42950;52.134;5.578;2022-11-15T11:47:40;4.13;;;2.50;;
23720;SDS011;42950;52.134;5.578;2022-11-15T11:50:25;4.57;;;2.63;;
23720;SDS011;42950;52.134;5.578;2022-11-15T11:52:56;5.50;;;2.47;;
23720;SDS011;42950;52.134;5.578;2022-11-15T11:55:34;7.28;;;2.40;;
23720;SDS011;42950;52.134;5.578;2022-11-15T12:06:27;3.60;;;2.10;;
23720;SDS011;42950;52.134;5.578;2022-11-15T12:14:46;3.80;;;2.10;;
23720;SDS011;42950;52.134;5.578;2022-11-15T12:17:24;5.75;;;2.70;;
23720;SDS011;42950;52.134;5.578;2022-11-15T12:19:56;5.72;;;1.92;;
23720;SDS011;42950;52.134;5.578;2022-11-15T12:22:23;3.50;;;1.55;;
23720;SDS011;42950;52.134;5.578;2022-11-15T12:25:40;3.75;;;1.73;;
23720;SDS011;42950;52.134;5.578;2022-11-15T12:28:28;3.42;;;1.60;;
23720;SDS011;42950;52.134;5.578;2022-11-15T12:31:11;4.85;;;1.70;;
23720;SDS011;42950;52.134;5.578;2022-11-15T12:33:46;5.35;;;2.00;;
23720;SDS011;42950;52.134;5.578;2022-11-15T12:41:22;4.75;;;1.70;;
23720;SDS011;42950;52.134;5.578;2022-11-15T12:43:58;5.10;;;1.70;;
23720;SDS011;42950;52.134;5.578;2022-11-15T12:48:56;5.60;;;2.45;;
23720;SDS011;42950;52.134;5.578;2022-11-15T13:22:42;6.50;;;1.70;;
23720;SDS011;42950;52.134;5.578;2022-11-15T13:28:01;8.63;;;1.70;;
23720;SDS011;42950;52.134;5.578;2022-11-15T13:30:35;9.40;;;1.88;;
23720;SDS011;42950;52.134;5.578;2022-11-15T13:33:15;2.40;;;1.10;;
23720;SDS011;42950;52.134;5.578;2022-11-15T13:36:05;6.28;;;1.30;;
23720;SDS011;42950;52.134;5.578;2022-11-15T13:38:34;4.22;;;1.27;;
23720;SDS011;42950;52.134;5.578;2022-11-15T13:41:13;9.82;;;1.50;;
23720;SDS011;42950;52.134;5.578;2022-11-15T13:43:45;6.50;;;1.50;;
23720;SDS011;42950;52.134;5.578;2022-11-15T13:46:13;8.27;;;1.65;;
23720;SDS011;42950;52.134;5.578;2022-11-15T13:48:46;5.57;;;1.55;;
23720;SDS011;42950;52.134;5.578;2022-11-15T13:54:02;4.47;;;1.48;;
23720;SDS011;42950;52.134;5.578;2022-11-15T13:56:42;4.82;;;1.42;;
23720;SDS011;42950;52.134;5.578;2022-11-15T13:59:32;5.60;;;1.58;;
23720;SDS011;42950;52.134;5.578;2022-11-15T14:02:01;4.63;;;1.40;;
23720;SDS011;42950;52.134;5.578;2022-11-15T14:04:35;8.13;;;1.55;;
23720;SDS011;42950;52.134;5.578;2022-11-15T14:07:03;4.28;;;1.30;;
23720;SDS011;42950;52.134;5.578;2022-11-15T14:09:30;2.75;;;1.27;;
23720;SDS011;42950;52.134;5.578;2022-11-15T14:12:03;5.68;;;1.25;;
23720;SDS011;42950;52.134;5.578;2022-11-15T14:14:46;4.55;;;1.20;;
23720;SDS011;42950;52.134;5.578;2022-11-15T14:17:32;5.38;;;1.20;;
23720;SDS011;42950;52.134;5.578;2022-11-15T14:20:00;6.45;;;1.10;;
23720;SDS011;42950;52.134;5.578;2022-11-15T14:22:28;3.90;;;1.30;;
23720;SDS011;42950;52.134;5.578;2022-11-15T14:27:44;4.45;;;1.38;;
23720;SDS011;42950;52.134;5.578;2022-11-15T14:30:35;3.10;;;1.10;;
23720;SDS011;42950;52.134;5.578;2022-11-15T14:33:01;3.58;;;1.00;;
23720;SDS011;42950;52.134;5.578;2022-11-15T14:35:39;7.13;;;1.42;;
23720;SDS011;42950;52.134;5.578;2022-11-15T14:38:04;2.83;;;1.13;;
23720;SDS011;42950;52.134;5.578;2022-11-15T14:40:30;4.13;;;1.38;;
23720;SDS011;42950;52.134;5.578;2022-11-15T14:42:56;4.75;;;1.30;;
23720;SDS011;42950;52.134;5.578;2022-11-15T14:45:22;3.55;;;1.17;;
23720;SDS011;42950;52.134;5.578;2022-11-15T14:47:47;4.18;;;1.42;;
23720;SDS011;42950;52.134;5.578;2022-11-15T14:50:15;3.03;;;1.33;;
23720;SDS011;42950;52.134;5.578;2022-11-15T14:52:42;4.28;;;1.50;;
23720;SDS011;42950;52.134;5.578;2022-11-15T14:55:27;6.07;;;1.98;;
23720;SDS011;42950;52.134;5.578;2022-11-15T14:57:56;3.63;;;1.77;;
23720;SDS011;42950;52.134;5.578;2022-11-15T15:00:21;6.53;;;1.83;;
23720;SDS011;42950;52.134;5.578;2022-11-15T15:02:47;2.63;;;1.30;;
23720;SDS011;42950;52.134;5.578;2022-11-15T15:05:16;3.97;;;1.08;;
23720;SDS011;42950;52.134;5.578;2022-11-15T15:07:44;3.20;;;1.02;;
23720;SDS011;42950;52.134;5.578;2022-11-15T15:10:10;3.80;;;1.10;;
23720;SDS011;42950;52.134;5.578;2022-11-15T15:12:36;3.42;;;1.13;;
23720;SDS011;42950;52.134;5.578;2022-11-15T15:15:02;6.00;;;1.42;;
23720;SDS011;42950;52.134;5.578;2022-11-15T15:17:27;2.53;;;1.25;;
23720;SDS011;42950;52.134;5.578;2022-11-15T15:19:53;4.60;;;1.30;;
23720;SDS011;42950;52.134;5.578;2022-11-15T15:22:19;4.80;;;1.02;;
23720;SDS011;42950;52.134;5.578;2022-11-15T15:24:47;4.03;;;1.23;;
23720;SDS011;42950;52.134;5.578;2022-11-15T15:27:13;5.30;;;1.13;;
23720;SDS011;42950;52.134;5.578;2022-11-15T15:29:38;2.35;;;1.00;;
23720;SDS011;42950;52.134;5.578;2022-11-15T15:32:05;4.78;;;1.20;;
23720;SDS011;42950;52.134;5.578;2022-11-15T15:34:30;1.92;;;1.35;;
23720;SDS011;42950;52.134;5.578;2022-11-15T15:39:49;4.30;;;1.33;;
23720;SDS011;42950;52.134;5.578;2022-11-15T15:42:18;6.30;;;1.50;;
23720;SDS011;42950;52.134;5.578;2022-11-15T15:44:45;4.88;;;1.50;;
23720;SDS011;42950;52.134;5.578;2022-11-15T15:47:15;5.10;;;1.35;;
23720;SDS011;42950;52.134;5.578;2022-11-15T15:49:46;4.53;;;1.30;;
23720;SDS011;42950;52.134;5.578;2022-11-15T15:52:12;4.28;;;1.15;;
23720;SDS011;42950;52.134;5.578;2022-11-15T15:54:38;2.25;;;1.10;;
23720;SDS011;42950;52.134;5.578;2022-11-15T15:57:05;3.95;;;0.82;;
23720;SDS011;42950;52.134;5.578;2022-11-15T15:59:31;3.30;;;0.95;;
23720;SDS011;42950;52.134;5.578;2022-11-15T16:01:57;3.35;;;1.13;;
23720;SDS011;42950;52.134;5.578;2022-11-15T16:04:22;3.47;;;1.08;;
23720;SDS011;42950;52.134;5.578;2022-11-15T16:06:48;2.20;;;1.00;;
23720;SDS011;42950;52.134;5.578;2022-11-15T16:09:16;4.47;;;1.13;;
23720;SDS011;42950;52.134;5.578;2022-11-15T16:11:46;3.17;;;1.20;;
23720;SDS011;42950;52.134;5.578;2022-11-15T16:14:12;6.03;;;1.20;;
23720;SDS011;42950;52.134;5.578;2022-11-15T16:16:37;5.65;;;1.63;;
23720;SDS011;42950;52.134;5.578;2022-11-15T16:19:03;2.95;;;1.33;;
23720;SDS011;42950;52.134;5.578;2022-11-15T16:21:29;4.75;;;1.85;;
23720;SDS011;42950;52.134;5.578;2022-11-15T16:23:55;5.70;;;1.50;;
23720;SDS011;42950;52.134;5.578;2022-11-15T16:26:22;3.08;;;1.20;;
23720;SDS011;42950;52.134;5.578;2022-11-15T16:28:49;7.15;;;1.52;;
23720;SDS011;42950;52.134;5.578;2022-11-15T16:31:15;5.30;;;1.92;;
23720;SDS011;42950;52.134;5.578;2022-11-15T16:33:43;5.53;;;1.55;;
23720;SDS011;42950;52.134;5.578;2022-11-15T16:36:20;5.03;;;1.77;;
23720;SDS011;42950;52.134;5.578;2022-11-15T16:38:47;6.05;;;1.63;;
23720;SDS011;42950;52.134;5.578;2022-11-15T16:41:13;4.90;;;1.65;;
23720;SDS011;42950;52.134;5.578;2022-11-15T16:43:39;3.03;;;1.58;;
23720;SDS011;42950;52.134;5.578;2022-11-15T16:46:18;4.63;;;1.92;;
23720;SDS011;42950;52.134;5.578;2022-11-15T16:48:48;3.28;;;1.55;;
23720;SDS011;42950;52.134;5.578;2022-11-15T16:51:14;4.65;;;1.90;;
23720;SDS011;42950;52.134;5.578;2022-11-15T16:53:39;5.43;;;2.50;;
23720;SDS011;42950;52.134;5.578;2022-11-15T16:56:48;3.10;;;1.75;;
23720;SDS011;42950;52.134;5.578;2022-11-15T16:58:55;5.65;;;1.50;;
23720;SDS011;42950;52.134;5.578;2022-11-15T17:01:28;3.65;;;1.50;;